createdAt,value
2022-12-25T00:00:07.529Z,42.50
2022-12-25T00:00:31.825Z,42.58
2022-12-25T00:00:54.715Z,41.97
2022-12-25T00:01:18.383Z,43.92
2022-12-25T00:01:41.262Z,42.00
2022-12-25T00:02:05.080Z,41.90
2022-12-25T00:02:29.807Z,43.47
2022-12-25T00:02:52.825Z,44.97
2022-12-25T00:03:15.831Z,44.53
2022-12-25T00:03:38.923Z,42.45
2022-12-25T00:04:01.868Z,47.47
2022-12-25T00:04:24.886Z,45.05
2022-12-25T00:04:47.677Z,44.33
2022-12-25T00:05:11.583Z,42.78
2022-12-25T00:05:34.392Z,43.65
2022-12-25T00:05:58.886Z,40.90
2022-12-25T00:06:21.680Z,42.53
2022-12-25T00:06:44.488Z,42.10
2022-12-25T00:07:07.279Z,42.28
2022-12-25T00:07:30.075Z,44.05
2022-12-25T00:07:52.873Z,44.00
2022-12-25T00:08:15.592Z,46.95
2022-12-25T00:08:41.787Z,47.42
2022-12-25T00:09:04.585Z,47.00
2022-12-25T00:09:30.735Z,47.13
2022-12-25T00:09:53.806Z,44.65
2022-12-25T00:10:16.786Z,44.35
2022-12-25T00:10:45.033Z,44.65
2022-12-25T00:11:09.216Z,45.50
2022-12-25T00:11:32.114Z,44.13
2022-12-25T00:11:54.844Z,45.90
2022-12-25T00:12:19.376Z,43.45
2022-12-25T00:12:42.113Z,45.95
2022-12-25T00:13:04.973Z,45.42
2022-12-25T00:13:27.855Z,44.08
2022-12-25T00:13:50.685Z,47.47
2022-12-25T00:14:13.454Z,45.60
2022-12-25T00:14:36.365Z,45.92
2022-12-25T00:14:59.139Z,44.88
2022-12-25T00:15:21.903Z,45.47
2022-12-25T00:15:46.106Z,46.45
2022-12-25T00:16:10.069Z,44.38
2022-12-25T00:16:32.957Z,47.13
2022-12-25T00:16:55.900Z,46.50
2022-12-25T00:17:19.602Z,42.35
2022-12-25T00:17:42.477Z,42.83
2022-12-25T00:18:05.342Z,44.25
2022-12-25T00:18:28.239Z,44.22
2022-12-25T00:18:51.738Z,45.00
2022-12-25T00:19:14.526Z,47.10
2022-12-25T00:19:37.279Z,48.92
2022-12-25T00:20:00.013Z,41.45
2022-12-25T00:20:22.804Z,43.55
2022-12-25T00:20:45.580Z,42.70
2022-12-25T00:21:08.425Z,44.63
2022-12-25T00:21:32.031Z,45.35
2022-12-25T00:21:54.958Z,42.83
2022-12-25T00:22:17.778Z,44.45
2022-12-25T00:22:40.625Z,42.83
2022-12-25T00:23:03.492Z,43.42
2022-12-25T00:23:26.368Z,45.05
2022-12-25T00:23:54.093Z,43.38
2022-12-25T00:24:16.864Z,44.17
2022-12-25T00:24:39.859Z,47.47
2022-12-25T00:25:02.571Z,46.20
2022-12-25T00:25:25.403Z,47.53
2022-12-25T00:25:48.161Z,44.65
2022-12-25T00:26:12.542Z,44.90
2022-12-25T00:26:35.377Z,42.03
2022-12-25T00:26:58.145Z,46.00
2022-12-25T00:27:20.962Z,48.45
2022-12-25T00:27:43.744Z,48.03
2022-12-25T00:28:06.573Z,48.55
2022-12-25T00:28:29.358Z,47.28
2022-12-25T00:28:53.017Z,45.67
2022-12-25T00:29:15.788Z,43.65
2022-12-25T00:29:38.626Z,42.95
2022-12-25T00:30:01.882Z,40.63
2022-12-25T00:30:24.734Z,38.75
2022-12-25T00:30:49.162Z,38.20
2022-12-25T00:31:13.032Z,38.70
2022-12-25T00:31:35.973Z,40.38
2022-12-25T00:31:58.901Z,41.03
2022-12-25T00:32:21.703Z,38.20
2022-12-25T00:32:44.454Z,40.22
2022-12-25T00:33:07.313Z,40.10
2022-12-25T00:33:30.123Z,42.60
2022-12-25T00:33:52.957Z,39.22
2022-12-25T00:34:15.778Z,42.00
2022-12-25T00:34:38.538Z,42.63
2022-12-25T00:35:01.280Z,41.33
2022-12-25T00:35:24.062Z,42.58
2022-12-25T00:35:57.700Z,38.97
2022-12-25T00:36:21.845Z,36.33
2022-12-25T00:36:45.077Z,39.70
2022-12-25T00:37:07.834Z,42.15
2022-12-25T00:37:30.631Z,36.58
2022-12-25T00:37:53.403Z,39.40
2022-12-25T00:38:16.191Z,39.45
2022-12-25T00:38:39.796Z,41.55
2022-12-25T00:39:02.926Z,41.83
2022-12-25T00:39:25.644Z,41.58
2022-12-25T00:39:50.901Z,39.42
2022-12-25T00:40:13.988Z,38.58
2022-12-25T00:40:43.432Z,40.70
2022-12-25T00:41:06.808Z,40.20
2022-12-25T00:41:48.303Z,38.15
2022-12-25T00:42:20.340Z,39.13
2022-12-25T00:42:43.063Z,36.45
2022-12-25T00:43:05.788Z,37.20
2022-12-25T00:43:28.543Z,38.30
2022-12-25T00:43:51.208Z,36.72
2022-12-25T00:44:14.210Z,38.25
2022-12-25T00:44:37.222Z,37.72
2022-12-25T00:45:01.630Z,34.95
2022-12-25T00:45:24.445Z,35.38
2022-12-25T00:45:56.492Z,35.53
2022-12-25T00:46:19.425Z,36.33
2022-12-25T00:46:42.624Z,35.47
2022-12-25T00:47:05.645Z,37.80
2022-12-25T00:47:28.555Z,35.58
2022-12-25T00:47:51.297Z,34.00
2022-12-25T00:48:14.013Z,33.85
2022-12-25T00:48:36.736Z,34.57
2022-12-25T00:49:00.993Z,34.42
2022-12-25T00:49:23.897Z,35.30
2022-12-25T00:49:46.737Z,35.17
2022-12-25T00:50:12.023Z,32.65
2022-12-25T00:50:34.836Z,33.92
2022-12-25T00:50:57.889Z,32.35
2022-12-25T00:51:20.664Z,32.13
2022-12-25T00:51:43.527Z,33.80
2022-12-25T00:52:06.273Z,32.15
2022-12-25T00:52:29.023Z,32.90
2022-12-25T00:52:51.792Z,33.70
2022-12-25T00:53:16.999Z,34.40
2022-12-25T00:53:39.783Z,34.53
2022-12-25T00:54:02.488Z,32.65
2022-12-25T00:54:25.199Z,33.25
2022-12-25T00:54:47.917Z,35.15
2022-12-25T00:55:10.906Z,33.22
2022-12-25T00:55:33.663Z,34.63
2022-12-25T00:55:57.572Z,34.45
2022-12-25T00:56:20.327Z,34.05
2022-12-25T00:56:43.145Z,34.55
2022-12-25T00:57:05.946Z,33.65
2022-12-25T00:57:28.779Z,37.63
2022-12-25T00:57:51.591Z,34.60
2022-12-25T00:58:14.380Z,34.72
2022-12-25T00:58:37.243Z,33.60
2022-12-25T00:59:00.093Z,32.75
2022-12-25T00:59:22.834Z,29.70
2022-12-25T00:59:45.506Z,30.95
2022-12-25T01:00:09.814Z,31.10
2022-12-25T01:00:32.558Z,31.00
2022-12-25T01:00:56.847Z,29.45
2022-12-25T01:01:19.859Z,30.23
2022-12-25T01:01:43.185Z,31.00
2022-12-25T01:02:24.719Z,31.15
2022-12-25T01:02:47.761Z,30.13
2022-12-25T01:03:10.721Z,30.60
2022-12-25T01:03:33.741Z,30.88
2022-12-25T01:03:56.644Z,32.90
2022-12-25T01:04:19.472Z,31.08
2022-12-25T01:04:42.258Z,31.15
2022-12-25T01:05:06.897Z,29.13
2022-12-25T01:05:29.773Z,30.17
2022-12-25T01:05:55.870Z,32.00
2022-12-25T01:06:18.639Z,31.17
2022-12-25T01:06:41.452Z,31.45
2022-12-25T01:07:04.225Z,30.63
2022-12-25T01:07:27.801Z,32.97
2022-12-25T01:07:50.568Z,30.75
2022-12-25T01:08:15.529Z,31.13
2022-12-25T01:08:39.077Z,31.08
2022-12-25T01:09:20.162Z,30.40
2022-12-25T01:10:01.611Z,31.38
2022-12-25T01:10:24.447Z,31.08
2022-12-25T01:10:54.574Z,30.75
2022-12-25T01:11:17.328Z,29.00
2022-12-25T01:11:40.106Z,29.40
2022-12-25T01:12:02.808Z,29.80
2022-12-25T01:12:25.631Z,29.63
2022-12-25T01:12:48.517Z,31.20
2022-12-25T01:13:11.206Z,30.73
2022-12-25T01:13:35.216Z,30.15
2022-12-25T01:13:57.966Z,31.85
2022-12-25T01:14:20.717Z,30.13
2022-12-25T01:14:43.504Z,28.08
2022-12-25T01:15:07.551Z,29.83
2022-12-25T01:15:30.360Z,29.45
2022-12-25T01:15:54.821Z,30.15
2022-12-25T01:16:19.072Z,29.35
2022-12-25T01:16:43.596Z,28.42
2022-12-25T01:17:06.451Z,28.73
2022-12-25T01:17:29.206Z,29.83
2022-12-25T01:17:51.988Z,28.40
2022-12-25T01:18:14.793Z,28.60
2022-12-25T01:18:38.302Z,28.17
2022-12-25T01:19:01.037Z,30.02
2022-12-25T01:19:23.752Z,30.25
2022-12-25T01:19:46.501Z,29.42
2022-12-25T01:20:09.526Z,29.13
2022-12-25T01:20:32.259Z,29.50
2022-12-25T01:20:55.010Z,28.45
2022-12-25T01:21:18.522Z,29.63
2022-12-25T01:21:41.289Z,30.27
2022-12-25T01:22:04.021Z,30.42
2022-12-25T01:22:26.875Z,28.23
2022-12-25T01:22:49.613Z,29.27
2022-12-25T01:23:12.506Z,29.98
2022-12-25T01:23:35.367Z,29.75
2022-12-25T01:23:58.193Z,27.27
2022-12-25T01:24:20.976Z,29.63
2022-12-25T01:24:44.353Z,30.88
2022-12-25T01:25:07.911Z,32.97
2022-12-25T01:25:30.750Z,34.45
2022-12-25T01:25:53.768Z,34.97
2022-12-25T01:26:16.852Z,31.30
2022-12-25T01:26:39.691Z,30.48
2022-12-25T01:27:02.476Z,30.92
2022-12-25T01:27:25.284Z,31.55
2022-12-25T01:27:48.006Z,32.60
2022-12-25T01:28:10.747Z,32.05
2022-12-25T01:28:33.510Z,32.03
2022-12-25T01:28:56.202Z,30.83
2022-12-25T01:29:18.946Z,29.83
2022-12-25T01:29:41.798Z,30.23
2022-12-25T01:30:05.378Z,29.70
2022-12-25T01:30:28.128Z,30.02
2022-12-25T01:30:50.885Z,29.45
2022-12-25T01:31:19.113Z,31.80
2022-12-25T01:31:42.057Z,31.40
2022-12-25T01:32:05.637Z,31.92
2022-12-25T01:32:28.481Z,33.95
2022-12-25T01:32:51.208Z,32.85
2022-12-25T01:33:13.988Z,31.90
2022-12-25T01:33:36.807Z,31.08
2022-12-25T01:33:59.566Z,29.48
2022-12-25T01:34:22.370Z,31.38
2022-12-25T01:34:49.344Z,32.67
2022-12-25T01:35:16.866Z,31.70
2022-12-25T01:35:40.349Z,33.55
2022-12-25T01:36:03.031Z,31.48
2022-12-25T01:36:26.249Z,29.80
2022-12-25T01:36:49.071Z,30.63
2022-12-25T01:37:11.853Z,33.63
2022-12-25T01:37:34.566Z,32.75
2022-12-25T01:37:57.466Z,30.33
2022-12-25T01:38:20.189Z,30.88
2022-12-25T01:38:43.400Z,29.27
2022-12-25T01:39:06.356Z,33.00
2022-12-25T01:39:29.248Z,32.95
2022-12-25T01:39:52.134Z,31.15
2022-12-25T01:40:14.938Z,31.40
2022-12-25T01:40:38.161Z,30.05
2022-12-25T01:41:00.921Z,33.72
2022-12-25T01:41:24.605Z,28.63
2022-12-25T01:41:48.362Z,30.70
2022-12-25T01:42:16.003Z,28.42
2022-12-25T01:42:38.877Z,30.42
2022-12-25T01:43:01.582Z,30.60
2022-12-25T01:43:25.461Z,30.48
2022-12-25T01:43:59.713Z,29.73
2022-12-25T01:44:55.523Z,30.35
2022-12-25T01:45:32.885Z,28.95
2022-12-25T01:45:56.107Z,30.85
2022-12-25T01:46:23.277Z,32.00
2022-12-25T01:46:46.194Z,29.55
2022-12-25T01:47:08.967Z,28.42
2022-12-25T01:47:31.788Z,28.83
2022-12-25T01:47:54.559Z,28.85
2022-12-25T01:48:19.561Z,28.02
2022-12-25T01:48:43.341Z,27.98
2022-12-25T01:49:06.835Z,29.33
2022-12-25T01:49:29.689Z,29.50
2022-12-25T01:49:52.438Z,28.35
2022-12-25T01:50:15.218Z,28.67
2022-12-25T01:50:38.389Z,29.27
2022-12-25T01:51:02.311Z,28.33
2022-12-25T01:51:26.637Z,30.75
2022-12-25T01:51:52.047Z,30.85
2022-12-25T01:52:21.665Z,28.30
2022-12-25T01:52:46.625Z,28.75
2022-12-25T01:53:09.445Z,28.42
2022-12-25T01:53:32.220Z,28.05
2022-12-25T01:53:57.408Z,27.42
2022-12-25T01:54:23.396Z,27.85
2022-12-25T01:54:48.173Z,29.52
2022-12-25T01:55:12.201Z,28.00
2022-12-25T01:55:35.525Z,28.40
2022-12-25T01:55:59.165Z,29.55
2022-12-25T01:56:22.237Z,28.30
2022-12-25T01:56:44.985Z,26.35
2022-12-25T01:57:10.191Z,27.65
2022-12-25T01:57:34.802Z,28.77
2022-12-25T01:57:57.686Z,29.15
2022-12-25T01:58:20.491Z,27.90
2022-12-25T01:58:43.323Z,28.88
2022-12-25T01:59:06.182Z,30.52
2022-12-25T01:59:30.136Z,27.98
2022-12-25T01:59:53.011Z,29.20
2022-12-25T02:00:16.492Z,29.17
2022-12-25T02:00:39.236Z,29.40
2022-12-25T02:01:02.030Z,27.90
2022-12-25T02:01:26.377Z,29.40
2022-12-25T02:01:49.357Z,31.25
2022-12-25T02:02:12.547Z,31.20
2022-12-25T02:02:35.687Z,33.85
2022-12-25T02:02:59.017Z,31.33
2022-12-25T02:03:21.956Z,29.63
2022-12-25T02:03:44.807Z,34.15
2022-12-25T02:04:15.378Z,31.45
2022-12-25T02:04:41.362Z,31.17
2022-12-25T02:05:05.343Z,33.47
2022-12-25T02:05:30.127Z,32.08
2022-12-25T02:05:52.864Z,31.60
2022-12-25T02:06:15.605Z,29.85
2022-12-25T02:06:38.418Z,30.90
2022-12-25T02:07:01.147Z,31.10
2022-12-25T02:07:24.657Z,31.10
2022-12-25T02:07:47.452Z,29.55
2022-12-25T02:08:11.578Z,34.22
2022-12-25T02:08:34.330Z,33.65
2022-12-25T02:08:57.155Z,29.13
2022-12-25T02:09:19.966Z,32.22
2022-12-25T02:09:42.997Z,35.13
2022-12-25T02:10:07.177Z,33.45
2022-12-25T02:10:30.035Z,33.25
2022-12-25T02:10:52.832Z,30.42
2022-12-25T02:11:35.539Z,31.40
2022-12-25T02:11:58.326Z,30.38
2022-12-25T02:12:23.133Z,31.67
2022-12-25T02:12:47.150Z,29.60
2022-12-25T02:13:09.970Z,29.33
2022-12-25T02:13:32.789Z,33.20
2022-12-25T02:13:55.562Z,32.55
2022-12-25T02:14:18.406Z,30.63
2022-12-25T02:14:41.205Z,30.75
2022-12-25T02:15:06.781Z,30.15
2022-12-25T02:15:33.219Z,31.63
2022-12-25T02:15:59.685Z,30.20
2022-12-25T02:16:22.590Z,28.88
2022-12-25T02:16:57.031Z,29.63
2022-12-25T02:17:25.234Z,30.70
2022-12-25T02:17:53.363Z,29.17
2022-12-25T02:18:18.586Z,30.42
2022-12-25T02:18:44.234Z,30.25
2022-12-25T02:19:11.732Z,29.40
2022-12-25T02:20:00.967Z,27.65
2022-12-25T02:20:48.193Z,29.30
2022-12-25T02:21:24.026Z,30.98
2022-12-25T02:21:54.002Z,31.17
2022-12-25T02:22:18.402Z,28.42
2022-12-25T02:22:48.108Z,29.70
2022-12-25T02:23:29.687Z,29.95
2022-12-25T02:24:03.927Z,26.98
2022-12-25T02:24:56.706Z,30.30
2022-12-25T02:25:29.612Z,28.02
2022-12-25T02:25:58.832Z,29.88
2022-12-25T02:26:53.963Z,28.90
2022-12-25T02:27:23.277Z,31.02
2022-12-25T02:27:58.902Z,29.48
2022-12-25T02:28:23.108Z,30.25
2022-12-25T02:28:50.420Z,30.45
2022-12-25T02:29:17.660Z,27.75
2022-12-25T02:29:46.254Z,30.17
2022-12-25T02:30:09.719Z,29.70
2022-12-25T02:30:34.906Z,28.90
2022-12-25T02:31:01.941Z,29.25
2022-12-25T02:31:29.650Z,30.65
2022-12-25T02:31:55.734Z,30.85
2022-12-25T02:32:24.730Z,30.52
2022-12-25T02:32:50.584Z,29.98
2022-12-25T02:33:33.790Z,28.27
2022-12-25T02:34:04.618Z,27.33
2022-12-25T02:34:32.017Z,29.45
2022-12-25T02:34:58.285Z,28.00
2022-12-25T02:35:23.929Z,29.45
2022-12-25T02:35:47.861Z,28.75
2022-12-25T02:36:11.215Z,28.25
2022-12-25T02:36:38.416Z,30.80
2022-12-25T02:37:05.042Z,30.20
2022-12-25T02:37:30.009Z,28.40
2022-12-25T02:37:54.882Z,28.95
2022-12-25T02:38:19.862Z,28.17
2022-12-25T02:39:02.896Z,28.08
2022-12-25T02:39:45.458Z,29.08
2022-12-25T02:40:11.209Z,30.90
2022-12-25T02:40:36.190Z,28.70
2022-12-25T02:41:00.221Z,30.08
2022-12-25T02:41:23.072Z,29.02
2022-12-25T02:41:45.997Z,29.85
2022-12-25T02:42:24.609Z,31.10
2022-12-25T02:43:08.638Z,29.25
2022-12-25T02:43:52.269Z,30.05
2022-12-25T02:44:35.645Z,29.95
2022-12-25T02:45:17.062Z,29.42
2022-12-25T02:46:01.175Z,31.27
2022-12-25T02:46:42.897Z,31.17
2022-12-25T02:47:24.598Z,30.23
2022-12-25T02:48:05.773Z,30.73
2022-12-25T02:48:49.287Z,31.13
2022-12-25T02:49:32.476Z,32.08
2022-12-25T02:50:24.817Z,30.48
2022-12-25T02:51:07.824Z,31.88
2022-12-25T02:51:51.744Z,31.38
2022-12-25T02:52:34.762Z,31.08
2022-12-25T02:53:16.500Z,31.23
2022-12-25T02:53:58.541Z,30.17
2022-12-25T02:54:41.752Z,30.98
2022-12-25T02:55:25.177Z,29.27
2022-12-25T02:56:06.794Z,32.40
2022-12-25T02:56:48.509Z,29.83
2022-12-25T02:57:30.512Z,30.45
2022-12-25T02:58:12.252Z,30.50
2022-12-25T02:58:56.096Z,33.10
2022-12-25T02:59:37.532Z,28.75
2022-12-25T03:00:19.027Z,30.73
2022-12-25T03:01:01.669Z,30.60
2022-12-25T03:01:44.073Z,29.23
2022-12-25T03:02:25.711Z,30.83
2022-12-25T03:03:07.133Z,31.25
2022-12-25T03:03:49.248Z,31.80
2022-12-25T03:04:32.488Z,30.67
2022-12-25T03:05:14.092Z,29.50
2022-12-25T03:05:56.984Z,28.70
2022-12-25T03:06:38.493Z,30.00
2022-12-25T03:07:06.742Z,29.40
2022-12-25T03:07:30.097Z,32.13
2022-12-25T03:07:52.875Z,33.38
2022-12-25T03:08:19.220Z,29.17
2022-12-25T03:08:42.812Z,29.27
2022-12-25T03:09:24.563Z,28.50
2022-12-25T03:10:08.763Z,30.98
2022-12-25T03:10:50.359Z,29.52
2022-12-25T03:11:31.164Z,29.50
2022-12-25T03:11:57.218Z,30.17
2022-12-25T03:12:24.397Z,30.10
2022-12-25T03:12:49.447Z,30.15
2022-12-25T03:13:13.130Z,29.17
2022-12-25T03:13:38.270Z,28.35
2022-12-25T03:14:21.957Z,31.17
2022-12-25T03:15:03.533Z,29.38
2022-12-25T03:15:44.904Z,28.05
2022-12-25T03:16:26.718Z,28.60
2022-12-25T03:16:50.679Z,29.40
2022-12-25T03:17:13.520Z,28.25
2022-12-25T03:17:36.256Z,28.75
2022-12-25T03:18:01.049Z,30.50
2022-12-25T03:18:24.603Z,28.83
2022-12-25T03:18:47.357Z,26.48
2022-12-25T03:19:28.783Z,30.73
2022-12-25T03:20:10.256Z,27.17
2022-12-25T03:20:51.834Z,31.52
2022-12-25T03:21:32.861Z,28.00
2022-12-25T03:22:14.441Z,27.40
2022-12-25T03:22:56.260Z,29.00
2022-12-25T03:23:39.389Z,28.88
2022-12-25T03:24:20.997Z,30.48
2022-12-25T03:25:02.436Z,28.75
2022-12-25T03:25:44.073Z,30.92
2022-12-25T03:26:25.684Z,29.48
2022-12-25T03:26:57.703Z,29.88
2022-12-25T03:27:20.497Z,28.35
2022-12-25T03:27:43.274Z,27.55
2022-12-25T03:28:06.434Z,26.17
2022-12-25T03:28:29.305Z,27.23
2022-12-25T03:28:53.618Z,28.40
2022-12-25T03:29:36.313Z,30.25
2022-12-25T03:30:17.714Z,29.30
2022-12-25T03:31:02.683Z,27.45
2022-12-25T03:31:28.979Z,30.13
2022-12-25T03:31:53.943Z,28.83
2022-12-25T03:32:22.849Z,29.25
2022-12-25T03:32:48.339Z,28.58
2022-12-25T03:33:43.290Z,27.80
2022-12-25T03:34:34.221Z,26.23
2022-12-25T03:35:19.370Z,28.73
2022-12-25T03:35:44.707Z,28.25
2022-12-25T03:36:10.303Z,27.48
2022-12-25T03:36:35.601Z,27.98
2022-12-25T03:37:07.863Z,26.73
2022-12-25T03:37:43.372Z,27.73
2022-12-25T03:38:32.334Z,26.90
2022-12-25T03:39:32.668Z,27.20
2022-12-25T03:40:18.480Z,26.48
2022-12-25T03:41:06.309Z,27.05
2022-12-25T03:41:53.623Z,28.33
2022-12-25T03:42:54.838Z,27.70
2022-12-25T03:44:03.051Z,27.25
2022-12-25T03:44:49.135Z,30.27
2022-12-25T03:45:31.689Z,28.20
2022-12-25T03:46:13.279Z,30.00
2022-12-25T03:46:55.889Z,29.20
2022-12-25T03:47:35.899Z,29.38
2022-12-25T03:48:13.756Z,29.63
2022-12-25T03:48:55.609Z,28.70
2022-12-25T03:49:40.639Z,28.73
2022-12-25T03:50:25.138Z,31.40
2022-12-25T03:51:08.090Z,30.27
2022-12-25T03:51:50.112Z,30.65
2022-12-25T03:52:32.796Z,28.55
2022-12-25T03:53:14.233Z,32.15
2022-12-25T03:53:58.914Z,29.80
2022-12-25T03:54:42.309Z,30.90
2022-12-25T03:55:25.950Z,29.90
2022-12-25T03:56:07.210Z,32.00
2022-12-25T03:56:49.041Z,28.60
2022-12-25T03:57:30.190Z,30.55
2022-12-25T03:58:11.579Z,29.65
2022-12-25T03:58:53.222Z,30.13
2022-12-25T03:59:37.313Z,30.95
2022-12-25T04:00:20.009Z,27.92
2022-12-25T04:01:01.286Z,28.52
2022-12-25T04:01:42.460Z,29.88
2022-12-25T04:02:24.291Z,28.42
2022-12-25T04:03:06.059Z,29.58
2022-12-25T04:03:48.064Z,28.25
2022-12-25T04:04:29.789Z,29.25
2022-12-25T04:05:11.391Z,30.38
2022-12-25T04:05:52.761Z,30.65
2022-12-25T04:06:33.856Z,31.45
2022-12-25T04:07:15.072Z,29.27
2022-12-25T04:07:56.339Z,30.45
2022-12-25T04:08:37.610Z,29.40
2022-12-25T04:09:18.884Z,29.33
2022-12-25T04:10:00.389Z,30.63
2022-12-25T04:10:41.534Z,31.05
2022-12-25T04:11:22.759Z,30.98
2022-12-25T04:12:04.466Z,32.05
2022-12-25T04:12:45.604Z,28.63
2022-12-25T04:13:26.972Z,28.55
2022-12-25T04:14:08.497Z,29.02
2022-12-25T04:14:49.883Z,33.65
2022-12-25T04:15:33.064Z,30.08
2022-12-25T04:16:14.889Z,28.50
2022-12-25T04:16:56.485Z,29.30
2022-12-25T04:17:38.096Z,28.23
2022-12-25T04:18:19.657Z,30.50
2022-12-25T04:19:01.163Z,28.67
2022-12-25T04:19:42.743Z,29.77
2022-12-25T04:20:25.830Z,28.95
2022-12-25T04:21:07.329Z,28.73
2022-12-25T04:21:48.917Z,28.48
2022-12-25T04:22:30.585Z,30.52
2022-12-25T04:23:12.043Z,29.73
2022-12-25T04:23:53.337Z,28.13
2022-12-25T04:24:35.059Z,26.52
2022-12-25T04:25:16.552Z,28.02
2022-12-25T04:25:57.924Z,27.83
2022-12-25T04:26:39.545Z,28.52
2022-12-25T04:27:20.571Z,27.33
2022-12-25T04:28:02.146Z,28.10
2022-12-25T04:28:43.230Z,27.35
2022-12-25T04:29:24.652Z,28.63
2022-12-25T04:30:06.989Z,27.73
2022-12-25T04:30:49.816Z,28.17
2022-12-25T04:31:31.262Z,28.15
2022-12-25T04:32:13.155Z,27.63
2022-12-25T04:32:54.531Z,29.38
2022-12-25T04:33:35.855Z,25.10
2022-12-25T04:34:17.324Z,29.17
2022-12-25T04:34:59.075Z,31.45
2022-12-25T04:35:40.939Z,28.00
2022-12-25T04:36:09.812Z,29.52
2022-12-25T04:36:32.689Z,30.30
2022-12-25T04:36:57.835Z,29.30
2022-12-25T04:37:20.609Z,27.80
2022-12-25T04:37:43.406Z,27.85
2022-12-25T04:38:06.186Z,27.63
2022-12-25T04:38:29.075Z,27.05
2022-12-25T04:38:52.014Z,25.90
2022-12-25T04:39:14.692Z,28.38
2022-12-25T04:39:37.508Z,27.05
2022-12-25T04:40:00.277Z,25.85
2022-12-25T04:40:22.963Z,27.55
2022-12-25T04:40:45.696Z,26.50
2022-12-25T04:41:09.211Z,27.90
2022-12-25T04:41:32.015Z,28.88
2022-12-25T04:41:54.789Z,27.95
2022-12-25T04:42:17.931Z,25.95
2022-12-25T04:42:41.171Z,27.02
2022-12-25T04:43:03.911Z,30.70
2022-12-25T04:43:26.838Z,27.98
2022-12-25T04:43:52.177Z,29.90
2022-12-25T04:44:14.906Z,29.13
2022-12-25T04:44:37.753Z,29.33
2022-12-25T04:45:00.522Z,27.80
2022-12-25T04:45:23.269Z,28.55
2022-12-25T04:45:57.096Z,30.70
2022-12-25T04:46:19.986Z,28.52
2022-12-25T04:46:42.894Z,33.22
2022-12-25T04:47:10.977Z,34.53
2022-12-25T04:47:37.130Z,34.30
2022-12-25T04:48:00.761Z,37.10
2022-12-25T04:48:23.595Z,40.05
2022-12-25T04:48:49.620Z,39.85
2022-12-25T04:49:12.340Z,41.05
2022-12-25T04:49:35.160Z,40.75
2022-12-25T04:49:57.929Z,40.50
2022-12-25T04:50:20.702Z,38.58
2022-12-25T04:50:43.430Z,37.50
2022-12-25T04:51:13.582Z,36.85
2022-12-25T04:51:37.216Z,35.83
2022-12-25T04:51:59.936Z,35.75
2022-12-25T04:52:22.720Z,34.88
2022-12-25T04:52:45.438Z,35.90
2022-12-25T04:53:08.235Z,33.90
2022-12-25T04:53:33.146Z,34.33
2022-12-25T04:53:56.117Z,34.65
2022-12-25T04:54:18.895Z,36.25
2022-12-25T04:54:41.770Z,35.65
2022-12-25T04:55:05.098Z,34.38
2022-12-25T04:55:27.866Z,33.13
2022-12-25T04:55:50.664Z,33.78
2022-12-25T04:56:13.464Z,36.47
2022-12-25T04:56:41.716Z,35.08
2022-12-25T04:57:08.330Z,33.55
2022-12-25T04:57:31.148Z,36.42
2022-12-25T04:57:53.833Z,34.78
2022-12-25T04:58:16.570Z,35.70
2022-12-25T04:58:39.305Z,33.83
2022-12-25T04:59:02.069Z,35.70
2022-12-25T04:59:24.965Z,36.65
2022-12-25T04:59:47.720Z,35.78
2022-12-25T05:00:11.857Z,35.17
2022-12-25T05:00:34.630Z,32.78
2022-12-25T05:01:01.664Z,33.78
2022-12-25T05:01:24.516Z,36.53
2022-12-25T05:01:47.559Z,35.00
2022-12-25T05:02:10.694Z,34.30
2022-12-25T05:02:34.032Z,37.25
2022-12-25T05:02:58.186Z,37.50
2022-12-25T05:03:21.252Z,35.90
2022-12-25T05:03:44.247Z,36.00
2022-12-25T05:04:07.149Z,33.53
2022-12-25T05:04:29.873Z,33.92
2022-12-25T05:04:52.765Z,33.25
2022-12-25T05:05:15.701Z,32.95
2022-12-25T05:05:40.621Z,31.63
2022-12-25T05:06:03.594Z,35.22
2022-12-25T05:06:26.412Z,33.70
2022-12-25T05:06:49.249Z,30.90
2022-12-25T05:07:12.001Z,30.65
2022-12-25T05:07:35.839Z,30.35
2022-12-25T05:07:58.569Z,30.90
2022-12-25T05:08:21.348Z,29.00
2022-12-25T05:08:44.057Z,27.85
2022-12-25T05:09:07.000Z,32.40
2022-12-25T05:09:30.826Z,31.77
2022-12-25T05:09:53.786Z,30.58
2022-12-25T05:10:16.720Z,29.98
2022-12-25T05:10:40.321Z,29.92
2022-12-25T05:11:06.014Z,32.08
2022-12-25T05:11:28.823Z,30.73
2022-12-25T05:11:51.579Z,30.60
2022-12-25T05:12:14.293Z,30.90
2022-12-25T05:12:37.082Z,31.50
2022-12-25T05:12:59.801Z,32.97
2022-12-25T05:13:22.564Z,32.10
2022-12-25T05:13:45.355Z,32.67
2022-12-25T05:14:08.193Z,31.35
2022-12-25T05:14:31.059Z,29.90
2022-12-25T05:14:53.908Z,29.88
2022-12-25T05:15:16.862Z,32.97
2022-12-25T05:15:40.312Z,33.47
2022-12-25T05:16:07.051Z,32.85
2022-12-25T05:16:29.793Z,32.45
2022-12-25T05:16:52.606Z,29.38
2022-12-25T05:17:15.450Z,29.30
2022-12-25T05:17:38.256Z,28.27
2022-12-25T05:18:01.050Z,29.83
2022-12-25T05:18:24.196Z,30.88
2022-12-25T05:18:48.755Z,29.67
2022-12-25T05:19:11.530Z,29.02
2022-12-25T05:19:34.280Z,32.20
2022-12-25T05:19:57.030Z,30.63
2022-12-25T05:20:19.756Z,29.75
2022-12-25T05:20:42.497Z,31.05
2022-12-25T05:21:05.469Z,30.35
2022-12-25T05:21:28.173Z,29.10
2022-12-25T05:21:50.900Z,28.35
2022-12-25T05:22:13.640Z,29.25
2022-12-25T05:22:36.391Z,30.55
2022-12-25T05:22:59.145Z,29.42
2022-12-25T05:23:22.119Z,28.65
2022-12-25T05:23:50.705Z,30.40
2022-12-25T05:24:13.510Z,28.95
2022-12-25T05:24:36.339Z,30.13
2022-12-25T05:24:59.078Z,32.42
2022-12-25T05:25:21.855Z,33.75
2022-12-25T05:25:44.625Z,32.95
2022-12-25T05:26:07.588Z,30.92
2022-12-25T05:26:30.515Z,30.95
2022-12-25T05:26:53.351Z,29.63
2022-12-25T05:27:16.159Z,30.88
2022-12-25T05:27:38.895Z,29.40
2022-12-25T05:28:01.684Z,29.38
2022-12-25T05:28:24.505Z,30.42
2022-12-25T05:28:47.882Z,29.83
2022-12-25T05:29:10.590Z,31.50
2022-12-25T05:29:33.674Z,30.13
2022-12-25T05:29:56.504Z,30.63
2022-12-25T05:30:19.329Z,32.42
2022-12-25T05:30:42.131Z,32.70
2022-12-25T05:31:06.715Z,31.92
2022-12-25T05:31:29.588Z,35.47
2022-12-25T05:31:52.459Z,32.33
2022-12-25T05:32:15.279Z,31.65
2022-12-25T05:32:38.115Z,30.60
2022-12-25T05:33:00.850Z,33.47
2022-12-25T05:33:23.615Z,34.33
2022-12-25T05:33:48.876Z,34.05
2022-12-25T05:34:11.653Z,32.25
2022-12-25T05:34:34.410Z,34.13
2022-12-25T05:35:00.322Z,34.63
2022-12-25T05:35:23.146Z,35.53
2022-12-25T05:35:45.965Z,30.75
2022-12-25T05:36:10.618Z,32.78
2022-12-25T05:36:33.418Z,35.47
2022-12-25T05:36:56.844Z,32.67
2022-12-25T05:37:19.595Z,33.92
2022-12-25T05:37:42.340Z,33.20
2022-12-25T05:38:05.079Z,35.13
2022-12-25T05:38:27.915Z,36.22
2022-12-25T05:38:51.071Z,38.60
2022-12-25T05:39:16.335Z,37.10
2022-12-25T05:39:39.109Z,36.92
2022-12-25T05:40:04.836Z,39.85
2022-12-25T05:40:27.545Z,38.97
2022-12-25T05:40:51.485Z,40.80
2022-12-25T05:41:14.266Z,41.28
2022-12-25T05:41:37.155Z,42.20
2022-12-25T05:41:59.900Z,41.47
2022-12-25T05:42:25.130Z,39.70
2022-12-25T05:42:47.909Z,38.50
2022-12-25T05:43:10.655Z,39.95
2022-12-25T05:43:33.374Z,41.15
2022-12-25T05:43:56.089Z,41.70
2022-12-25T05:44:19.059Z,43.03
2022-12-25T05:44:41.774Z,40.03
2022-12-25T05:45:05.617Z,40.75
2022-12-25T05:45:28.400Z,39.08
2022-12-25T05:45:51.236Z,42.25
2022-12-25T05:46:15.506Z,38.58
2022-12-25T05:46:38.351Z,40.38
2022-12-25T05:47:01.262Z,40.38
2022-12-25T05:47:24.084Z,35.80
2022-12-25T05:47:46.955Z,38.00
2022-12-25T05:48:09.920Z,37.70
2022-12-25T05:48:33.238Z,37.30
2022-12-25T05:48:56.175Z,36.85
2022-12-25T05:49:18.891Z,37.97
2022-12-25T05:49:42.434Z,36.08
2022-12-25T05:50:06.423Z,36.58
2022-12-25T05:50:29.228Z,36.42
2022-12-25T05:50:52.534Z,36.10
2022-12-25T05:51:15.386Z,37.63
2022-12-25T05:51:38.262Z,40.10
2022-12-25T05:52:01.036Z,49.50
2022-12-25T05:52:23.777Z,44.42
2022-12-25T05:52:46.568Z,43.20
2022-12-25T05:53:10.142Z,42.35
2022-12-25T05:53:32.882Z,43.65
2022-12-25T05:53:55.700Z,43.85
2022-12-25T05:54:18.595Z,42.50
2022-12-25T05:54:41.414Z,39.97
2022-12-25T05:55:04.501Z,39.88
2022-12-25T05:55:27.210Z,38.88
2022-12-25T05:55:50.928Z,37.53
2022-12-25T05:56:13.546Z,39.08
2022-12-25T05:56:36.429Z,39.95